Time;durP1;ratioP1;P1;durP2;ratioP2;P2;SDS_P1;SDS_P2;PMS_P1;PMS_P2;Temp;Humidity;BMP_temperature;BMP_pressure;BME280_temperature;BME280_humidity;BME280_pressure;Samples;Min_cycle;Max_cycle;Signal;HPM_P1;HPM_P2
2022/03/28 00:01:52;;;;;;;9.93;8.23;;;;;;;;;;5051541;28;20237;-77
2022/03/28 00:04:19;;;;;;;9.43;7.13;;;;;;;;;;5041335;28;20199;-78
2022/03/28 00:06:46;;;;;;;8.97;8.03;;;;;;;;;;5037939;28;20265;-79
2022/03/28 00:09:13;;;;;;;10.63;7.70;;;;;;;;;;5043427;28;20257;-78
2022/03/28 00:11:42;;;;;;;9.57;8.40;;;;;;;;;;5038883;28;20760;-78
2022/03/28 00:14:09;;;;;;;8.83;7.93;;;;;;;;;;5037451;28;20196;-78
2022/03/28 00:16:36;;;;;;;9.50;8.00;;;;;;;;;;5037476;28;20269;-79
2022/03/28 00:19:03;;;;;;;11.20;8.53;;;;;;;;;;5043384;28;20232;-78
2022/03/28 00:21:30;;;;;;;10.63;7.83;;;;;;;;;;5027844;28;20679;-78
2022/03/28 00:23:58;;;;;;;11.50;7.63;;;;;;;;;;5022852;28;20206;-79
2022/03/28 00:26:25;;;;;;;9.87;7.60;;;;;;;;;;5022774;28;20297;-79
2022/03/28 00:28:53;;;;;;;11.00;7.70;;;;;;;;;;5021808;28;20610;-79
2022/03/28 00:31:20;;;;;;;10.83;8.13;;;;;;;;;;5023155;28;20343;-78
2022/03/28 00:33:47;;;;;;;11.43;8.30;;;;;;;;;;5022231;28;20321;-78
2022/03/28 00:36:14;;;;;;;8.77;7.87;;;;;;;;;;5022699;28;20243;-79
2022/03/28 00:38:41;;;;;;;10.27;7.73;;;;;;;;;;5022342;28;20208;-79
2022/03/28 00:41:08;;;;;;;10.33;7.83;;;;;;;;;;5039230;28;20230;-78
2022/03/28 00:43:37;;;;;;;8.80;7.50;;;;;;;;;;5036814;28;20203;-77
2022/03/28 00:46:05;;;;;;;13.47;8.00;;;;;;;;;;5032222;28;20684;-78
2022/03/28 00:48:32;;;;;;;9.27;7.13;;;;;;;;;;5041782;28;20687;-78
2022/03/28 00:51:01;;;;;;;10.43;8.00;;;;;;;;;;5041164;28;20246;-79
2022/03/28 00:53:28;;;;;;;9.73;8.10;;;;;;;;;;5041571;28;20643;-78
2022/03/28 00:55:55;;;;;;;13.23;8.57;;;;;;;;;;5041501;28;20315;-78
2022/03/28 00:58:23;;;;;;;10.23;8.07;;;;;;;;;;5041425;28;20210;-78
2022/03/28 01:00:50;;;;;;;13.73;8.30;;;;;;;;;;5037905;28;20311;-78
2022/03/28 01:03:18;;;;;;;8.97;7.70;;;;;;;;;;5038675;28;20225;-79
2022/03/28 01:05:45;;;;;;;8.87;7.63;;;;;;;;;;5045556;28;20710;-79
2022/03/28 01:08:14;;;;;;;9.20;7.77;;;;;;;;;;5045487;28;20206;-78
2022/03/28 01:10:43;;;;;;;10.73;8.13;;;;;;;;;;5042665;28;20313;-77
2022/03/28 01:13:10;;;;;;;15.67;7.63;;;;;;;;;;5047841;28;20206;-79
2022/03/28 01:15:37;;;;;;;8.73;7.73;;;;;;;;;;5044622;28;20675;-78
2022/03/28 01:18:06;;;;;;;11.93;7.93;;;;;;;;;;5047175;28;20203;-78
2022/03/28 01:20:36;;;;;;;9.90;8.00;;;;;;;;;;5045243;28;20259;-78
2022/03/28 01:23:04;;;;;;;10.17;7.80;;;;;;;;;;5044170;28;20207;-78
2022/03/28 01:25:31;;;;;;;12.87;8.80;;;;;;;;;;5033228;28;20239;-79
2022/03/28 01:27:59;;;;;;;9.83;7.83;;;;;;;;;;5027348;28;20273;-78
2022/03/28 01:30:28;;;;;;;9.57;8.43;;;;;;;;;;5045032;28;20238;-79
2022/03/28 01:32:56;;;;;;;11.97;8.40;;;;;;;;;;5045762;28;20222;-78
2022/03/28 01:35:27;;;;;;;12.27;8.97;;;;;;;;;;5044409;28;20410;-78
2022/03/28 01:37:54;;;;;;;10.70;8.10;;;;;;;;;;5042839;28;20199;-79
2022/03/28 01:40:22;;;;;;;11.07;8.37;;;;;;;;;;5032768;28;20590;-78
2022/03/28 01:42:49;;;;;;;11.03;9.17;;;;;;;;;;5031880;28;20708;-78
2022/03/28 01:45:18;;;;;;;12.17;8.23;;;;;;;;;;5044173;28;20203;-79
2022/03/28 01:47:45;;;;;;;9.93;7.90;;;;;;;;;;5044302;28;20202;-78
2022/03/28 01:50:12;;;;;;;10.20;7.80;;;;;;;;;;5044780;28;20253;-78
2022/03/28 01:52:39;;;;;;;9.67;7.13;;;;;;;;;;5044031;28;20597;-79
2022/03/28 01:55:07;;;;;;;11.10;8.50;;;;;;;;;;5043816;28;20229;-78
2022/03/28 01:57:35;;;;;;;11.27;7.87;;;;;;;;;;5035151;28;20206;-78
2022/03/28 02:00:02;;;;;;;9.80;8.23;;;;;;;;;;5027613;28;20236;-79
2022/03/28 02:02:30;;;;;;;10.87;8.23;;;;;;;;;;5024239;28;20230;-79
2022/03/28 02:04:57;;;;;;;9.30;7.53;;;;;;;;;;5026792;28;20203;-78
2022/03/28 02:07:24;;;;;;;9.27;7.73;;;;;;;;;;5035325;28;20289;-78
2022/03/28 02:09:51;;;;;;;9.67;7.43;;;;;;;;;;5043406;28;20587;-78
2022/03/28 02:12:18;;;;;;;12.20;8.53;;;;;;;;;;5030995;28;20282;-78
2022/03/28 02:14:46;;;;;;;9.00;8.00;;;;;;;;;;5038826;28;20627;-78
2022/03/28 02:17:13;;;;;;;9.17;8.00;;;;;;;;;;5043522;28;20277;-78
2022/03/28 02:19:41;;;;;;;10.07;8.20;;;;;;;;;;5042730;28;21049;-78
2022/03/28 02:22:08;;;;;;;8.97;7.80;;;;;;;;;;5043119;28;20817;-78
2022/03/28 02:24:35;;;;;;;9.73;7.90;;;;;;;;;;5044078;28;20203;-78
2022/03/28 02:27:02;;;;;;;9.03;7.67;;;;;;;;;;5027446;28;20234;-78
2022/03/28 02:29:29;;;;;;;7.87;7.03;;;;;;;;;;5024118;28;20227;-78
2022/03/28 02:31:58;;;;;;;8.93;7.10;;;;;;;;;;5039522;28;20265;-78
2022/03/28 02:34:25;;;;;;;7.90;6.63;;;;;;;;;;5044627;28;20199;-78
2022/03/28 02:36:52;;;;;;;7.83;6.23;;;;;;;;;;5027536;28;20231;-79
2022/03/28 02:39:19;;;;;;;9.83;6.80;;;;;;;;;;5030499;28;20230;-77
2022/03/28 02:41:46;;;;;;;12.73;7.00;;;;;;;;;;5039245;28;20643;-78
2022/03/28 02:44:13;;;;;;;10.23;7.07;;;;;;;;;;5023730;28;20204;-79
2022/03/28 02:46:40;;;;;;;9.97;6.60;;;;;;;;;;5034957;28;20231;-78
2022/03/28 02:49:09;;;;;;;11.37;6.77;;;;;;;;;;5044789;28;20264;-78
2022/03/28 02:51:36;;;;;;;14.23;7.40;;;;;;;;;;5030150;28;20243;-78
2022/03/28 02:54:03;;;;;;;8.50;7.30;;;;;;;;;;5025795;28;20198;-77
2022/03/28 02:56:30;;;;;;;8.53;7.07;;;;;;;;;;5040307;28;20226;-78
2022/03/28 02:58:57;;;;;;;8.33;6.83;;;;;;;;;;5036271;28;20207;-79
2022/03/28 03:01:25;;;;;;;10.77;7.40;;;;;;;;;;5023491;28;20289;-79
2022/03/28 03:03:52;;;;;;;10.13;7.53;;;;;;;;;;5031717;28;20217;-78
2022/03/28 03:06:20;;;;;;;8.40;7.50;;;;;;;;;;5038873;28;20648;-77
2022/03/28 03:08:47;;;;;;;11.57;7.43;;;;;;;;;;5024188;28;20214;-79
2022/03/28 03:11:14;;;;;;;8.33;6.77;;;;;;;;;;5040584;28;20228;-77
2022/03/28 03:13:41;;;;;;;12.57;8.17;;;;;;;;;;5023502;28;20242;-78
2022/03/28 03:16:08;;;;;;;10.50;8.23;;;;;;;;;;5023706;28;20288;-77
2022/03/28 03:18:35;;;;;;;10.67;8.23;;;;;;;;;;5028679;28;20206;-78
2022/03/28 03:21:03;;;;;;;9.90;7.37;;;;;;;;;;5037830;28;20301;-78
2022/03/28 03:23:31;;;;;;;8.80;7.23;;;;;;;;;;5032176;28;20195;-79
2022/03/28 03:25:58;;;;;;;18.27;8.33;;;;;;;;;;5022433;28;20230;-78
2022/03/28 03:28:25;;;;;;;10.70;8.40;;;;;;;;;;5034149;28;20202;-78
2022/03/28 03:30:52;;;;;;;10.83;7.70;;;;;;;;;;5023565;28;20249;-79
2022/03/28 03:33:19;;;;;;;8.33;7.53;;;;;;;;;;5022686;28;20213;-78
2022/03/28 03:35:46;;;;;;;10.43;7.73;;;;;;;;;;5024014;28;20242;-78
2022/03/28 03:38:13;;;;;;;14.40;7.83;;;;;;;;;;5023723;28;20203;-78
2022/03/28 03:40:42;;;;;;;9.53;7.97;;;;;;;;;;5021981;28;20295;-79
2022/03/28 03:43:09;;;;;;;9.63;7.40;;;;;;;;;;5024074;28;20209;-77
2022/03/28 03:45:37;;;;;;;9.63;7.53;;;;;;;;;;5023050;28;20260;-78
2022/03/28 03:48:04;;;;;;;13.97;9.27;;;;;;;;;;5023215;28;20202;-78
2022/03/28 03:50:31;;;;;;;11.10;8.57;;;;;;;;;;5022717;28;20233;-78
2022/03/28 03:52:58;;;;;;;13.73;8.33;;;;;;;;;;5023106;28;20618;-78
2022/03/28 03:55:25;;;;;;;9.20;7.60;;;;;;;;;;5022086;28;20245;-78
2022/03/28 03:57:53;;;;;;;7.80;6.83;;;;;;;;;;5022087;28;20273;-78
2022/03/28 04:00:22;;;;;;;9.57;6.83;;;;;;;;;;5022421;28;20263;-78
2022/03/28 04:02:50;;;;;;;8.57;6.73;;;;;;;;;;5039535;28;20236;-77
2022/03/28 04:05:17;;;;;;;7.97;6.87;;;;;;;;;;5040474;28;20236;-77
2022/03/28 04:07:44;;;;;;;10.37;8.10;;;;;;;;;;5038099;28;20203;-77
2022/03/28 04:10:12;;;;;;;8.80;7.13;;;;;;;;;;5036452;28;20738;-76
2022/03/28 04:12:39;;;;;;;9.07;8.13;;;;;;;;;;5054322;28;20213;-77
2022/03/28 04:15:10;;;;;;;10.20;8.10;;;;;;;;;;5050952;28;20205;-77
2022/03/28 04:17:41;;;;;;;11.87;7.73;;;;;;;;;;5045142;28;20236;-78
2022/03/28 04:20:09;;;;;;;12.97;7.63;;;;;;;;;;5044440;28;20224;-77
2022/03/28 04:22:36;;;;;;;9.03;7.60;;;;;;;;;;5045345;28;20214;-78
2022/03/28 04:25:03;;;;;;;13.17;8.60;;;;;;;;;;5044588;28;20208;-79
2022/03/28 04:27:30;;;;;;;9.80;8.13;;;;;;;;;;5047765;28;20204;-79
2022/03/28 04:29:57;;;;;;;10.30;8.37;;;;;;;;;;5048348;28;20238;-78
2022/03/28 04:32:26;;;;;;;10.73;8.20;;;;;;;;;;5039656;28;20229;-77
2022/03/28 04:34:53;;;;;;;9.23;7.90;;;;;;;;;;5049325;28;20233;-80
2022/03/28 04:37:20;;;;;;;9.13;7.27;;;;;;;;;;5046051;28;20228;-78
2022/03/28 04:39:47;;;;;;;8.70;7.53;;;;;;;;;;5042353;28;20717;-78
2022/03/28 04:42:14;;;;;;;10.10;7.90;;;;;;;;;;5040679;28;20237;-79
2022/03/28 04:44:41;;;;;;;9.33;8.30;;;;;;;;;;5036952;28;20207;-79
2022/03/28 04:47:08;;;;;;;14.40;8.67;;;;;;;;;;5031546;28;20227;-78
2022/03/28 04:49:37;;;;;;;9.67;7.17;;;;;;;;;;5032265;28;20357;-79
2022/03/28 04:52:04;;;;;;;12.87;8.23;;;;;;;;;;5031956;28;20230;-79
2022/03/28 04:54:31;;;;;;;9.47;7.00;;;;;;;;;;5032377;28;20287;-79
2022/03/28 04:56:58;;;;;;;9.47;7.67;;;;;;;;;;5028497;28;20233;-79
2022/03/28 04:59:26;;;;;;;9.43;7.70;;;;;;;;;;5031182;28;20302;-78
2022/03/28 05:01:53;;;;;;;12.00;7.47;;;;;;;;;;5028792;28;20230;-79
2022/03/28 05:04:20;;;;;;;9.37;7.50;;;;;;;;;;5028828;28;20206;-78
2022/03/28 05:06:48;;;;;;;8.73;7.73;;;;;;;;;;5030395;28;20236;-78
2022/03/28 05:09:15;;;;;;;10.50;7.57;;;;;;;;;;5029722;28;20237;-80
2022/03/28 05:11:42;;;;;;;12.40;7.13;;;;;;;;;;5032062;28;20302;-78
2022/03/28 05:14:09;;;;;;;9.70;7.07;;;;;;;;;;5025278;28;20208;-77
2022/03/28 05:16:36;;;;;;;9.93;6.93;;;;;;;;;;5030900;28;20251;-78
2022/03/28 05:19:04;;;;;;;12.70;7.50;;;;;;;;;;5035194;28;20224;-79
2022/03/28 05:21:31;;;;;;;12.00;7.20;;;;;;;;;;5034834;28;20227;-79
2022/03/28 05:23:59;;;;;;;9.50;7.10;;;;;;;;;;5031647;28;20579;-79
2022/03/28 05:26:26;;;;;;;10.83;8.00;;;;;;;;;;5031885;28;20726;-79
2022/03/28 05:28:53;;;;;;;9.67;7.67;;;;;;;;;;5032311;28;20203;-79
2022/03/28 05:31:21;;;;;;;7.23;6.47;;;;;;;;;;5030482;28;20235;-79
2022/03/28 05:33:48;;;;;;;9.50;6.60;;;;;;;;;;5032130;28;20295;-80
2022/03/28 05:36:15;;;;;;;7.50;6.57;;;;;;;;;;5035111;28;20224;-79
2022/03/28 05:38:42;;;;;;;8.73;6.90;;;;;;;;;;5035703;28;20198;-78
2022/03/28 05:41:10;;;;;;;11.73;6.67;;;;;;;;;;5035141;28;20235;-79
2022/03/28 05:43:38;;;;;;;12.73;8.50;;;;;;;;;;5031015;28;20214;-79
2022/03/28 05:46:06;;;;;;;10.00;7.53;;;;;;;;;;5033571;28;20226;-79
2022/03/28 05:48:33;;;;;;;11.27;8.07;;;;;;;;;;5038027;28;20257;-79
2022/03/28 05:51:01;;;;;;;10.13;7.70;;;;;;;;;;5040803;28;20226;-80
2022/03/28 05:53:28;;;;;;;10.03;7.80;;;;;;;;;;5037015;28;20211;-79
2022/03/28 05:55:55;;;;;;;9.73;7.60;;;;;;;;;;5037100;28;20234;-80
2022/03/28 05:58:24;;;;;;;10.57;8.20;;;;;;;;;;5037976;28;20277;-79
2022/03/28 06:00:51;;;;;;;12.67;7.83;;;;;;;;;;5037015;28;20304;-79
2022/03/28 06:03:18;;;;;;;8.00;7.20;;;;;;;;;;5038142;28;20241;-79
2022/03/28 06:05:45;;;;;;;10.60;8.37;;;;;;;;;;5032248;28;20235;-79
2022/03/28 06:08:12;;;;;;;10.50;8.40;;;;;;;;;;5036558;28;20571;-79
2022/03/28 06:10:39;;;;;;;17.07;9.43;;;;;;;;;;5027090;28;20331;-79
2022/03/28 06:13:08;;;;;;;13.10;9.17;;;;;;;;;;5036687;28;20664;-79
2022/03/28 06:15:37;;;;;;;14.43;9.07;;;;;;;;;;5030666;28;20239;-79
2022/03/28 06:18:05;;;;;;;17.97;9.63;;;;;;;;;;5021133;28;20263;-79
2022/03/28 06:20:32;;;;;;;15.13;10.50;;;;;;;;;;5020168;28;20261;-79
2022/03/28 06:23:00;;;;;;;13.00;10.03;;;;;;;;;;5037202;28;20234;-79
2022/03/28 06:25:27;;;;;;;13.97;10.83;;;;;;;;;;5041788;28;20296;-79
2022/03/28 06:27:54;;;;;;;17.43;10.23;;;;;;;;;;5041190;28;20281;-79
2022/03/28 06:30:21;;;;;;;15.10;11.07;;;;;;;;;;5040738;28;20240;-79
2022/03/28 06:32:50;;;;;;;18.23;11.27;;;;;;;;;;5038349;28;20261;-78
2022/03/28 06:35:17;;;;;;;20.73;12.30;;;;;;;;;;5038077;28;20198;-79
2022/03/28 06:37:44;;;;;;;15.70;12.00;;;;;;;;;;5032379;28;20711;-78
2022/03/28 06:40:12;;;;;;;21.17;12.67;;;;;;;;;;5036933;28;20227;-78
2022/03/28 06:42:39;;;;;;;25.33;14.07;;;;;;;;;;5026876;28;20293;-78
2022/03/28 06:45:06;;;;;;;22.47;14.17;;;;;;;;;;5037670;28;20253;-78
2022/03/28 06:47:33;;;;;;;26.53;15.43;;;;;;;;;;5037697;28;20671;-79
2022/03/28 06:50:01;;;;;;;29.73;15.13;;;;;;;;;;5037048;28;20226;-77
2022/03/28 06:52:28;;;;;;;24.53;14.73;;;;;;;;;;5036019;28;20288;-79
2022/03/28 06:54:56;;;;;;;28.50;15.63;;;;;;;;;;5039923;28;20198;-79
2022/03/28 06:57:23;;;;;;;27.40;16.67;;;;;;;;;;5039350;28;20242;-80
2022/03/28 06:59:50;;;;;;;29.00;17.23;;;;;;;;;;5037118;28;20318;-79
2022/03/28 07:02:18;;;;;;;32.53;17.97;;;;;;;;;;5038104;28;20293;-78
2022/03/28 07:04:45;;;;;;;30.73;17.90;;;;;;;;;;5043909;28;20221;-80
2022/03/28 07:07:13;;;;;;;32.23;18.57;;;;;;;;;;5038566;28;20297;-78
2022/03/28 07:09:40;;;;;;;32.13;18.13;;;;;;;;;;5041937;28;20257;-79
2022/03/28 07:12:09;;;;;;;27.17;17.00;;;;;;;;;;5039466;28;20737;-79
2022/03/28 07:14:36;;;;;;;22.47;15.47;;;;;;;;;;5040969;28;20210;-79
2022/03/28 07:17:03;;;;;;;29.20;15.93;;;;;;;;;;5039738;28;20238;-80
2022/03/28 07:19:30;;;;;;;21.60;14.33;;;;;;;;;;5038937;28;20230;-79
2022/03/28 07:21:58;;;;;;;21.07;14.20;;;;;;;;;;5030601;28;20239;-78
2022/03/28 07:24:27;;;;;;;16.73;12.43;;;;;;;;;;5044543;28;20842;-79
2022/03/28 07:26:54;;;;;;;20.33;12.63;;;;;;;;;;5043508;28;20234;-78
2022/03/28 07:29:21;;;;;;;25.27;13.50;;;;;;;;;;5043529;28;20261;-79
2022/03/28 07:31:49;;;;;;;16.73;10.97;;;;;;;;;;5034579;28;20232;-79
2022/03/28 07:34:32;;;;;;;19.00;11.90;;;;;;;;;;5020411;28;20214;-80
2022/03/28 07:37:02;;;;;;;24.13;12.23;;;;;;;;;;5021268;28;20651;-80
2022/03/28 07:39:33;;;;;;;18.60;12.30;;;;;;;;;;5021921;28;20739;-79
2022/03/28 07:42:00;;;;;;;16.30;11.17;;;;;;;;;;5014456;28;20322;-77
2022/03/28 07:44:27;;;;;;;16.43;10.97;;;;;;;;;;5015694;28;20207;-78
2022/03/28 07:46:54;;;;;;;16.90;10.73;;;;;;;;;;5018897;28;20243;-78
2022/03/28 07:49:23;;;;;;;24.13;11.00;;;;;;;;;;5020120;28;20227;-78
2022/03/28 07:51:50;;;;;;;16.30;11.07;;;;;;;;;;5018905;28;20722;-78
2022/03/28 07:54:18;;;;;;;13.53;10.27;;;;;;;;;;5019272;28;20234;-79
2022/03/28 07:56:46;;;;;;;13.80;10.27;;;;;;;;;;5019962;28;20242;-79
2022/03/28 07:59:14;;;;;;;16.00;10.73;;;;;;;;;;5021231;28;20335;-79
2022/03/28 08:01:41;;;;;;;18.80;10.87;;;;;;;;;;5020914;28;20235;-78
2022/03/28 08:04:08;;;;;;;13.67;9.60;;;;;;;;;;5040539;28;20210;-79
2022/03/28 08:06:35;;;;;;;14.40;10.53;;;;;;;;;;5041062;28;20245;-79
2022/03/28 08:09:02;;;;;;;15.77;9.50;;;;;;;;;;5042717;28;20223;-79
2022/03/28 08:11:30;;;;;;;13.20;9.47;;;;;;;;;;5040773;28;20238;-79
2022/03/28 08:14:00;;;;;;;15.40;9.17;;;;;;;;;;5040834;28;20241;-79
2022/03/28 08:16:28;;;;;;;15.17;9.37;;;;;;;;;;5032492;28;20262;-80
2022/03/28 08:18:55;;;;;;;16.97;8.57;;;;;;;;;;5038551;28;20227;-78
2022/03/28 08:21:22;;;;;;;16.33;10.13;;;;;;;;;;5036963;28;20241;-79
2022/03/28 08:23:49;;;;;;;13.47;9.17;;;;;;;;;;5042716;28;20264;-79
2022/03/28 08:26:16;;;;;;;10.33;8.73;;;;;;;;;;5041148;28;20341;-79
2022/03/28 08:28:44;;;;;;;15.13;8.87;;;;;;;;;;5022138;28;20203;-78
2022/03/28 08:31:12;;;;;;;13.40;8.80;;;;;;;;;;5022863;28;20305;-80
2022/03/28 08:33:40;;;;;;;14.57;8.30;;;;;;;;;;5021109;28;20773;-80
2022/03/28 08:36:07;;;;;;;10.07;7.97;;;;;;;;;;5020522;28;20239;-79
2022/03/28 08:38:35;;;;;;;15.93;8.63;;;;;;;;;;5020580;28;20618;-79
2022/03/28 08:41:02;;;;;;;10.47;8.20;;;;;;;;;;5021170;28;20239;-80
2022/03/28 08:43:30;;;;;;;11.00;8.00;;;;;;;;;;5040116;28;20211;-80
2022/03/28 08:45:58;;;;;;;10.87;8.23;;;;;;;;;;5039343;28;20265;-80
2022/03/28 08:48:28;;;;;;;9.30;7.93;;;;;;;;;;5029850;28;20305;-79
2022/03/28 08:50:56;;;;;;;10.67;7.73;;;;;;;;;;5037362;28;20277;-80
2022/03/28 08:53:23;;;;;;;10.90;8.47;;;;;;;;;;5038829;28;20668;-80
2022/03/28 08:55:51;;;;;;;11.23;7.63;;;;;;;;;;5037925;28;20245;-80
2022/03/28 08:58:19;;;;;;;10.87;7.83;;;;;;;;;;5038211;28;20317;-80
2022/03/28 09:00:46;;;;;;;12.07;8.20;;;;;;;;;;5038378;28;20261;-80
2022/03/28 09:03:13;;;;;;;12.63;8.00;;;;;;;;;;5036807;28;20229;-79
2022/03/28 09:05:47;;;;;;;9.07;7.57;;;;;;;;;;5040606;28;20233;-79
2022/03/28 09:08:14;;;;;;;12.13;7.70;;;;;;;;;;5038575;28;20203;-79
2022/03/28 09:10:47;;;;;;;11.30;8.30;;;;;;;;;;5037873;28;20318;-79
2022/03/28 09:13:16;;;;;;;12.00;7.70;;;;;;;;;;5038392;28;20207;-79
2022/03/28 09:15:47;;;;;;;10.20;7.53;;;;;;;;;;5037188;28;20258;-79
2022/03/28 09:18:27;;;;;;;11.50;7.47;;;;;;;;;;5035961;28;20219;-80
2022/03/28 09:20:56;;;;;;;11.00;7.87;;;;;;;;;;5034337;28;20237;-79
2022/03/28 09:23:26;;;;;;;8.67;7.43;;;;;;;;;;5038443;28;20248;-80
2022/03/28 09:25:53;;;;;;;13.60;7.67;;;;;;;;;;5041721;28;20238;-79
2022/03/28 09:28:25;;;;;;;9.07;7.03;;;;;;;;;;5042397;28;20198;-80
2022/03/28 09:30:52;;;;;;;10.13;7.40;;;;;;;;;;5041593;28;20273;-79
2022/03/28 09:33:19;;;;;;;10.38;7.65;;;;;;;;;;5043031;28;20195;-80
2022/03/28 09:35:48;;;;;;;9.23;7.05;;;;;;;;;;5041143;28;20231;-80
2022/03/28 09:38:18;;;;;;;9.95;7.15;;;;;;;;;;5042090;28;20233;-80
2022/03/28 09:40:49;;;;;;;9.25;6.80;;;;;;;;;;5042184;28;20245;-80
2022/03/28 09:43:20;;;;;;;9.10;6.70;;;;;;;;;;5042043;28;20207;-79
2022/03/28 09:45:48;;;;;;;8.38;6.97;;;;;;;;;;5039512;28;20238;-79
2022/03/28 09:48:15;;;;;;;10.35;7.50;;;;;;;;;;5040185;28;20202;-80
2022/03/28 09:50:44;;;;;;;11.73;7.82;;;;;;;;;;5037456;28;20277;-79
2022/03/28 09:53:12;;;;;;;11.65;7.57;;;;;;;;;;5043738;28;20218;-80
2022/03/28 09:55:56;;;;;;;11.32;7.78;;;;;;;;;;5042045;28;20591;-80
2022/03/28 09:58:37;;;;;;;8.85;6.80;;;;;;;;;;5042720;28;20215;-80
2022/03/28 10:01:06;;;;;;;9.93;8.00;;;;;;;;;;5040292;28;20242;-80
2022/03/28 10:03:34;;;;;;;11.25;8.52;;;;;;;;;;5047528;28;20222;-80
2022/03/28 10:06:01;;;;;;;11.48;8.35;;;;;;;;;;5048977;28;20267;-80
2022/03/28 10:08:29;;;;;;;12.02;8.40;;;;;;;;;;5050081;28;20198;-80
2022/03/28 10:10:57;;;;;;;10.60;8.15;;;;;;;;;;5044385;28;20226;-80
2022/03/28 10:13:25;;;;;;;11.05;8.23;;;;;;;;;;5042257;28;20637;-80
2022/03/28 10:15:52;;;;;;;10.20;8.40;;;;;;;;;;5041767;28;20317;-80
2022/03/28 10:18:19;;;;;;;11.02;8.30;;;;;;;;;;5040577;28;20219;-80
2022/03/28 10:20:53;;;;;;;10.65;8.68;;;;;;;;;;5039698;28;20269;-80
2022/03/28 10:23:21;;;;;;;9.13;7.90;;;;;;;;;;5037808;28;20203;-80
2022/03/28 10:25:48;;;;;;;9.63;7.95;;;;;;;;;;5037948;28;20230;-80
2022/03/28 10:28:19;;;;;;;9.68;7.75;;;;;;;;;;5037385;28;20195;-80
2022/03/28 10:30:46;;;;;;;11.18;8.50;;;;;;;;;;5036685;28;20635;-79
2022/03/28 10:33:16;;;;;;;9.30;7.97;;;;;;;;;;5041288;28;20202;-80
2022/03/28 10:35:56;;;;;;;10.13;7.80;;;;;;;;;;5035237;28;20266;-80
2022/03/28 10:38:23;;;;;;;9.50;8.10;;;;;;;;;;5036194;28;20222;-80
2022/03/28 10:40:53;;;;;;;10.27;8.32;;;;;;;;;;5035429;28;20234;-80
2022/03/28 10:43:25;;;;;;;9.48;8.13;;;;;;;;;;5030859;28;20233;-80
2022/03/28 10:45:53;;;;;;;10.70;8.43;;;;;;;;;;5024149;28;20235;-80
2022/03/28 10:48:34;;;;;;;10.80;7.78;;;;;;;;;;5021484;28;20199;-80
2022/03/28 10:51:05;;;;;;;11.50;8.00;;;;;;;;;;5020162;28;20310;-80
2022/03/28 10:53:37;;;;;;;11.70;7.78;;;;;;;;;;5020605;28;20231;-80
2022/03/28 10:56:06;;;;;;;12.43;7.30;;;;;;;;;;5018704;28;20263;-80
2022/03/28 10:58:38;;;;;;;9.30;6.88;;;;;;;;;;5018876;28;20318;-80
2022/03/28 11:01:24;;;;;;;13.13;7.85;;;;;;;;;;5020343;28;20266;-80
2022/03/28 11:04:00;;;;;;;9.07;7.07;;;;;;;;;;5039836;28;20625;-80
2022/03/28 11:07:00;;;;;;;9.70;7.35;;;;;;;;;;5040292;28;20311;-80
2022/03/28 11:09:54;;;;;;;10.27;7.47;;;;;;;;;;4958534;29;20232;-80
2022/03/28 11:12:21;;;;;;;10.48;6.88;;;;;;;;;;4949150;29;20305;-80
2022/03/28 11:14:56;;;;;;;10.10;6.78;;;;;;;;;;5009510;28;20207;-80
2022/03/28 11:17:24;;;;;;;11.15;7.88;;;;;;;;;;5039082;28;20304;-80
2022/03/28 11:20:00;;;;;;;9.38;7.03;;;;;;;;;;5039354;28;20261;-81
2022/03/28 11:22:55;;;;;;;9.65;7.10;;;;;;;;;;5038805;28;20604;-81
2022/03/28 11:25:36;;;;;;;8.73;7.05;;;;;;;;;;4992380;28;20243;-81
2022/03/28 11:28:08;;;;;;;9.32;6.53;;;;;;;;;;5039634;28;20206;-81
2022/03/28 11:30:39;;;;;;;10.10;6.35;;;;;;;;;;5038905;28;20258;-81
2022/03/28 11:33:10;;;;;;;8.45;6.20;;;;;;;;;;5039845;28;20211;-81
2022/03/28 11:35:38;;;;;;;8.73;6.30;;;;;;;;;;5038737;28;20256;-80
2022/03/28 11:38:05;;;;;;;9.02;6.40;;;;;;;;;;5037461;28;20195;-81
2022/03/28 11:40:40;;;;;;;7.38;5.90;;;;;;;;;;5038761;28;20238;-81
2022/03/28 11:43:07;;;;;;;7.70;5.90;;;;;;;;;;5040740;28;20218;-81
2022/03/28 11:45:35;;;;;;;6.70;5.35;;;;;;;;;;5038824;28;20227;-81
2022/03/28 11:48:03;;;;;;;10.15;5.70;;;;;;;;;;5038803;28;20203;-81
2022/03/28 11:50:31;;;;;;;9.27;5.82;;;;;;;;;;5041234;28;20252;-81
2022/03/28 11:52:59;;;;;;;8.35;5.55;;;;;;;;;;5038099;28;20202;-81
2022/03/28 11:55:29;;;;;;;6.95;5.40;;;;;;;;;;5039557;28;20261;-82
2022/03/28 11:58:16;;;;;;;6.90;5.30;;;;;;;;;;5038250;28;20207;-82
2022/03/28 12:00:45;;;;;;;8.77;5.38;;;;;;;;;;5036815;28;20250;-82
2022/03/28 12:03:14;;;;;;;9.07;5.78;;;;;;;;;;5037810;28;20491;-81
2022/03/28 12:05:43;;;;;;;10.88;5.40;;;;;;;;;;5036933;28;20256;-80
2022/03/28 12:08:13;;;;;;;6.72;5.22;;;;;;;;;;5038202;28;20207;-79
2022/03/28 12:10:42;;;;;;;7.97;4.85;;;;;;;;;;5037159;28;20270;-79
2022/03/28 12:13:10;;;;;;;8.35;5.35;;;;;;;;;;5036209;28;20215;-80
2022/03/28 12:15:38;;;;;;;6.05;4.60;;;;;;;;;;5036054;28;20266;-80
2022/03/28 12:18:06;;;;;;;8.00;4.75;;;;;;;;;;5036238;28;20206;-80
2022/03/28 12:20:36;;;;;;;8.70;5.25;;;;;;;;;;5035354;28;20238;-80
2022/03/28 12:23:04;;;;;;;5.50;4.82;;;;;;;;;;5037042;28;20406;-82
2022/03/28 12:25:35;;;;;;;8.15;5.00;;;;;;;;;;5034894;28;20234;-81
2022/03/28 12:28:06;;;;;;;10.38;5.38;;;;;;;;;;5036982;28;20225;-80
2022/03/28 12:30:35;;;;;;;6.57;4.68;;;;;;;;;;5036281;28;20674;-81
2022/03/28 12:33:09;;;;;;;7.68;4.65;;;;;;;;;;5036934;28;20222;-81
2022/03/28 12:35:39;;;;;;;6.75;4.45;;;;;;;;;;5035840;28;20272;-81
2022/03/28 12:38:07;;;;;;;8.32;4.75;;;;;;;;;;5037988;28;20278;-82
2022/03/28 12:40:35;;;;;;;6.28;4.45;;;;;;;;;;5035600;28;20241;-82
2022/03/28 12:43:04;;;;;;;6.32;4.07;;;;;;;;;;5036959;28;20224;-82
2022/03/28 12:45:32;;;;;;;5.97;4.35;;;;;;;;;;5024644;28;20234;-81
2022/03/28 12:48:03;;;;;;;6.75;5.30;;;;;;;;;;5037124;28;20221;-81
2022/03/28 12:50:31;;;;;;;5.88;5.15;;;;;;;;;;5036941;28;20238;-81
2022/03/28 12:53:16;;;;;;;7.05;5.00;;;;;;;;;;5036533;28;20211;-81
2022/03/28 12:55:44;;;;;;;8.30;5.05;;;;;;;;;;5038900;28;20293;-81
2022/03/28 12:58:12;;;;;;;5.70;5.03;;;;;;;;;;5036079;28;20277;-82
2022/03/28 13:00:40;;;;;;;6.20;4.95;;;;;;;;;;5038387;28;20234;-81
2022/03/28 13:03:07;;;;;;;6.18;4.95;;;;;;;;;;5040680;28;20203;-82
2022/03/28 13:05:35;;;;;;;6.60;4.65;;;;;;;;;;5041665;28;20233;-80
2022/03/28 13:08:06;;;;;;;6.57;4.68;;;;;;;;;;5039960;28;20641;-81
2022/03/28 13:10:38;;;;;;;8.25;4.55;;;;;;;;;;5039182;28;20257;-81
2022/03/28 13:13:06;;;;;;;6.70;4.75;;;;;;;;;;5038909;28;20217;-80
2022/03/28 13:15:34;;;;;;;6.88;4.10;;;;;;;;;;5039776;28;20226;-81
2022/03/28 13:18:09;;;;;;;5.03;4.22;;;;;;;;;;5039566;28;20237;-80
2022/03/28 13:20:37;;;;;;;6.10;4.35;;;;;;;;;;5041090;28;20384;-80
2022/03/28 13:23:04;;;;;;;7.53;4.38;;;;;;;;;;5040937;28;20634;-80
2022/03/28 13:25:43;;;;;;;5.28;4.43;;;;;;;;;;5042243;28;20240;-81
2022/03/28 13:28:15;;;;;;;6.30;4.57;;;;;;;;;;5042472;28;20628;-80
2022/03/28 13:30:44;;;;;;;6.78;4.97;;;;;;;;;;5040467;28;20247;-81
2022/03/28 13:33:12;;;;;;;6.38;4.78;;;;;;;;;;5039964;28;20238;-80
2022/03/28 13:35:40;;;;;;;5.28;4.50;;;;;;;;;;5039222;28;20676;-81
2022/03/28 13:38:07;;;;;;;6.72;4.53;;;;;;;;;;5039435;28;20210;-82
2022/03/28 13:40:35;;;;;;;6.72;4.20;;;;;;;;;;5029640;28;20255;-81
2022/03/28 13:43:03;;;;;;;5.53;4.90;;;;;;;;;;5022529;28;20725;-81
2022/03/28 13:45:31;;;;;;;5.38;4.50;;;;;;;;;;5019879;28;20239;-81
2022/03/28 13:47:58;;;;;;;6.82;3.95;;;;;;;;;;5020953;28;20234;-81
2022/03/28 13:50:25;;;;;;;5.57;4.55;;;;;;;;;;5021318;28;20248;-82
2022/03/28 13:52:53;;;;;;;6.07;4.40;;;;;;;;;;5022134;28;20211;-81
2022/03/28 13:55:20;;;;;;;7.25;4.18;;;;;;;;;;5039177;28;20710;-82
2022/03/28 13:57:47;;;;;;;7.20;4.80;;;;;;;;;;5040328;28;20215;-80
2022/03/28 14:00:16;;;;;;;6.85;4.63;;;;;;;;;;5039979;28;20230;-81
2022/03/28 14:02:43;;;;;;;5.40;4.78;;;;;;;;;;5038699;28;20245;-84
2022/03/28 14:05:10;;;;;;;6.22;5.13;;;;;;;;;;5018493;28;20660;-81
2022/03/28 14:07:37;;;;;;;7.80;4.60;;;;;;;;;;5019188;28;20218;-80
2022/03/28 14:10:04;;;;;;;6.20;4.95;;;;;;;;;;5023738;28;20223;-81
2022/03/28 14:12:32;;;;;;;7.45;4.97;;;;;;;;;;5039734;28;20199;-81
2022/03/28 14:14:59;;;;;;;7.60;5.45;;;;;;;;;;5038029;28;20206;-81
2022/03/28 14:17:28;;;;;;;7.20;5.38;;;;;;;;;;5038763;28;20234;-80
2022/03/28 14:19:56;;;;;;;9.00;5.20;;;;;;;;;;5026119;28;20230;-81
2022/03/28 14:22:23;;;;;;;6.47;5.43;;;;;;;;;;5039111;28;20234;-81
2022/03/28 14:24:50;;;;;;;7.35;5.35;;;;;;;;;;5035332;28;20213;-80
2022/03/28 14:27:18;;;;;;;6.13;5.50;;;;;;;;;;5037375;28;20285;-79
2022/03/28 14:29:46;;;;;;;6.50;5.35;;;;;;;;;;5037280;28;20297;-79
2022/03/28 14:32:13;;;;;;;6.32;5.28;;;;;;;;;;5038323;28;20333;-80
2022/03/28 14:34:42;;;;;;;8.82;6.40;;;;;;;;;;5037128;28;20203;-80
2022/03/28 14:37:09;;;;;;;6.57;5.72;;;;;;;;;;5037809;28;20318;-79
2022/03/28 14:39:37;;;;;;;10.52;5.60;;;;;;;;;;5038434;28;20269;-81
2022/03/28 14:42:04;;;;;;;8.00;5.65;;;;;;;;;;5039148;28;20253;-80